Terminal Aerodrome Forecast
Issued by NWS

Home | Current Version | Previous Version | Text Only | Print | Product List | Glossary On
Versions: 1 2 3 4 5 6 7 8 9 10 11 12 13 14 15 16 17 18 19 20 21
000
FTUS46 KMTR 211700
TAFSJC
TAF
KSJC 211739Z 2118/2218 13003KT P6SM SCT030 SCT150
     FM212200 31007KT P6SM FEW040 BKN150
     FM220300 14006KT P6SM FEW035 BKN100
     FM221000 14011KT P6SM FEW030 BKN050
     FM221500 15015KT P6SM -RA OVC035=

USA.gov is the U.S. government's official web portal to all federal, state and local government web resources and services.